Detall de PIREP

Printer-friendly versionPDF version

[2010/06/02 09:08:00]
Flight IATA:CT3114
Pilot Number:011
Company ICAO:CAT
Aircraft Type:F50/A
PAX:50
Departing Airport: LEBL
Destination Airport: LEVC
Alternate Airport:LEPA
Online: VATSIM
Route:LOTOS B28 SOPET
Flight Level:FL170
No Slew and time accel
No pause
Crash detect
Detect pilot in Cockpit between each 30 and 45 minutes
09:08 Zero fuel Weight: 42043 Lbs, Fuel Weight: 2257 Lbs
09:08 VATSIM:LEBL 020830Z 14003KT 100V170 9999 FEW014 SCT040 22/16 Q1014 NOSIG
09:08 VATSIM:LEVC 020830Z 18004KT CAVOK 26/15 Q1013 NOSIG
09:09 Parking Brakes off
09:15 Take-off
09:15 Take off Weight: 44250 Lbs
09:15 Wind: 153º @ 004 Knots Heading: 243º
09:15 POS N41º 18´ 05´´ E002º 05´ 29´´
09:15 Gear Up: 134 Knots
09:15 Flaps:3 at 134 Knots
09:16 Flaps:2 at 158 Knots
09:16 Flaps:1 at 158 Knots
09:16 Flaps:0 at 158 Knots
09:26 TOC
09:26 Fuel Weight: 1875 Lb
09:30 Wind:152º@009 K
nots Heading: 206º Ground Speed: 268 Knots Altitude 17027 ft
09:45 Wind:164º@005 Knots Heading: 224º Ground Speed: 282 Knots Altitude 16916 ft
09:45 TOD
09:45 Fuel Weight: 1382 Lb
10:00 Wind:189º@008 Knots Heading: 236º Ground Speed: 196 Knots Altitude 4996 ft
10:03 Flaps:1 at 188 Knots
10:04 Flaps:2 at 174 Knots
10:05 Flaps:3 at 161 Knots
10:05 Flaps:4 at 150 Knots
10:05 Gear Down: 150 Knots
10:06 Flaps:5 at 119 Knots
10:06 Flaps:6 at 109 Knots
10:09 TouchDown:Rate -198 ft/min Speed: 95 Knots
10:09 VATSIM:LEVC 020930Z 19004KT CAVOK 27/14 Q1013 NOSIG
10:09 Land
10:09 Wind:193º@004 Knots
10:09 Heading: 116º
10:09 Flight Duration: 00:54
10:09 Landing Weight: 43148 Lbs
10:09 POS N39º 29´ 24´´ W000º 29´ 02´´
10:11 Parking brakes on
10:11 Block to Block Duration: 01:02
10:11 Final Fuel: 1086 Lbls
10:11 Spent Fuel: 1170 Lbls
10:11 Flight Length: 133 NM
10:
11 TOD Land Length: 66 NM

Exportar CSV

Powered by Drupal - Modified by Danger4k